sensor_id;sensor_type;location;lat;lon;timestamp;P1;durP1;ratioP1;P2;durP2;ratioP2
71856;SDS011;63344;46.980;28.882;2023-04-15T00:01:09;15.25;;;8.30;;
71856;SDS011;63344;46.980;28.882;2023-04-15T00:03:38;8.07;;;4.95;;
71856;SDS011;63344;46.980;28.882;2023-04-15T00:06:05;13.98;;;6.15;;
71856;SDS011;63344;46.980;28.882;2023-04-15T00:08:41;15.40;;;8.15;;
71856;SDS011;63344;46.980;28.882;2023-04-15T00:11:08;11.70;;;6.55;;
71856;SDS011;63344;46.980;28.882;2023-04-15T00:13:35;12.43;;;6.93;;
71856;SDS011;63344;46.980;28.882;2023-04-15T00:16:03;13.88;;;6.45;;
71856;SDS011;63344;46.980;28.882;2023-04-15T00:18:32;13.20;;;6.70;;
71856;SDS011;63344;46.980;28.882;2023-04-15T00:20:59;11.27;;;6.13;;
71856;SDS011;63344;46.980;28.882;2023-04-15T00:23:27;15.30;;;8.45;;
71856;SDS011;63344;46.980;28.882;2023-04-15T00:25:54;17.17;;;9.23;;
71856;SDS011;63344;46.980;28.882;2023-04-15T00:28:22;15.38;;;7.72;;
71856;SDS011;63344;46.980;28.882;2023-04-15T00:30:49;13.18;;;7.00;;
71856;SDS011;63344;46.980;28.882;2023-04-15T00:33:19;14.40;;;7.10;;
71856;SDS011;63344;46.980;28.882;2023-04-15T00:35:46;7.78;;;5.18;;
71856;SDS011;63344;46.980;28.882;2023-04-15T00:38:13;7.93;;;3.45;;
71856;SDS011;63344;46.980;28.882;2023-04-15T00:40:40;10.60;;;5.80;;
71856;SDS011;63344;46.980;28.882;2023-04-15T00:43:08;11.68;;;6.03;;
71856;SDS011;63344;46.980;28.882;2023-04-15T00:45:35;9.07;;;5.43;;
71856;SDS011;63344;46.980;28.882;2023-04-15T00:48:03;7.82;;;4.53;;
71856;SDS011;63344;46.980;28.882;2023-04-15T00:50:32;11.48;;;5.88;;
71856;SDS011;63344;46.980;28.882;2023-04-15T00:52:59;11.02;;;7.05;;
71856;SDS011;63344;46.980;28.882;2023-04-15T00:55:26;8.90;;;6.13;;
71856;SDS011;63344;46.980;28.882;2023-04-15T00:57:55;9.52;;;4.53;;
71856;SDS011;63344;46.980;28.882;2023-04-15T01:00:23;6.95;;;4.35;;
71856;SDS011;63344;46.980;28.882;2023-04-15T01:02:50;7.88;;;5.03;;
71856;SDS011;63344;46.980;28.882;2023-04-15T01:05:18;8.70;;;4.93;;
71856;SDS011;63344;46.980;28.882;2023-04-15T01:07:46;9.00;;;4.85;;
71856;SDS011;63344;46.980;28.882;2023-04-15T01:10:13;5.30;;;2.55;;
71856;SDS011;63344;46.980;28.882;2023-04-15T01:12:41;7.18;;;3.45;;
71856;SDS011;63344;46.980;28.882;2023-04-15T01:15:08;4.75;;;2.88;;
71856;SDS011;63344;46.980;28.882;2023-04-15T01:17:37;6.22;;;3.08;;
71856;SDS011;63344;46.980;28.882;2023-04-15T01:20:05;10.43;;;5.50;;
71856;SDS011;63344;46.980;28.882;2023-04-15T01:22:35;18.35;;;5.07;;
71856;SDS011;63344;46.980;28.882;2023-04-15T01:25:10;10.55;;;5.38;;
71856;SDS011;63344;46.980;28.882;2023-04-15T01:27:43;10.93;;;6.28;;
71856;SDS011;63344;46.980;28.882;2023-04-15T01:30:11;12.13;;;4.50;;
71856;SDS011;63344;46.980;28.882;2023-04-15T01:32:38;10.60;;;5.70;;
71856;SDS011;63344;46.980;28.882;2023-04-15T01:35:05;10.45;;;5.75;;
71856;SDS011;63344;46.980;28.882;2023-04-15T01:37:33;12.25;;;6.45;;
71856;SDS011;63344;46.980;28.882;2023-04-15T01:40:01;6.60;;;2.92;;
71856;SDS011;63344;46.980;28.882;2023-04-15T01:42:30;15.02;;;6.65;;
71856;SDS011;63344;46.980;28.882;2023-04-15T01:44:58;6.47;;;3.40;;
71856;SDS011;63344;46.980;28.882;2023-04-15T01:47:25;7.32;;;4.25;;
71856;SDS011;63344;46.980;28.882;2023-04-15T01:49:52;7.93;;;4.53;;
71856;SDS011;63344;46.980;28.882;2023-04-15T01:52:20;9.10;;;4.18;;
71856;SDS011;63344;46.980;28.882;2023-04-15T01:54:47;7.40;;;3.40;;
71856;SDS011;63344;46.980;28.882;2023-04-15T01:57:15;7.97;;;4.72;;
71856;SDS011;63344;46.980;28.882;2023-04-15T01:59:43;10.88;;;5.82;;
71856;SDS011;63344;46.980;28.882;2023-04-15T02:02:10;8.32;;;3.63;;
71856;SDS011;63344;46.980;28.882;2023-04-15T02:04:38;7.20;;;3.38;;
71856;SDS011;63344;46.980;28.882;2023-04-15T02:07:07;9.77;;;5.85;;
71856;SDS011;63344;46.980;28.882;2023-04-15T02:09:34;9.88;;;3.85;;
71856;SDS011;63344;46.980;28.882;2023-04-15T02:12:01;7.47;;;2.95;;
71856;SDS011;63344;46.980;28.882;2023-04-15T02:14:28;9.75;;;5.85;;
71856;SDS011;63344;46.980;28.882;2023-04-15T02:16:56;11.05;;;6.05;;
71856;SDS011;63344;46.980;28.882;2023-04-15T02:19:23;11.18;;;4.07;;
71856;SDS011;63344;46.980;28.882;2023-04-15T02:21:51;8.63;;;5.05;;
71856;SDS011;63344;46.980;28.882;2023-04-15T02:24:18;11.77;;;6.55;;
71856;SDS011;63344;46.980;28.882;2023-04-15T02:26:45;10.25;;;5.95;;
71856;SDS011;63344;46.980;28.882;2023-04-15T02:29:12;10.15;;;5.03;;
71856;SDS011;63344;46.980;28.882;2023-04-15T02:31:40;8.73;;;3.92;;
71856;SDS011;63344;46.980;28.882;2023-04-15T02:34:07;14.88;;;6.00;;
71856;SDS011;63344;46.980;28.882;2023-04-15T02:36:35;10.48;;;6.50;;
71856;SDS011;63344;46.980;28.882;2023-04-15T02:39:02;11.95;;;5.97;;
71856;SDS011;63344;46.980;28.882;2023-04-15T02:41:30;11.30;;;6.22;;
71856;SDS011;63344;46.980;28.882;2023-04-15T02:43:57;10.88;;;5.70;;
71856;SDS011;63344;46.980;28.882;2023-04-15T02:46:24;11.52;;;5.30;;
71856;SDS011;63344;46.980;28.882;2023-04-15T02:48:53;9.00;;;4.18;;
71856;SDS011;63344;46.980;28.882;2023-04-15T02:51:20;10.60;;;5.63;;
71856;SDS011;63344;46.980;28.882;2023-04-15T02:53:52;6.45;;;3.25;;
71856;SDS011;63344;46.980;28.882;2023-04-15T02:56:19;10.15;;;4.10;;
71856;SDS011;63344;46.980;28.882;2023-04-15T02:58:49;7.25;;;3.85;;
71856;SDS011;63344;46.980;28.882;2023-04-15T03:01:17;7.30;;;3.88;;
71856;SDS011;63344;46.980;28.882;2023-04-15T03:03:47;8.30;;;4.45;;
71856;SDS011;63344;46.980;28.882;2023-04-15T03:06:14;5.20;;;3.30;;
71856;SDS011;63344;46.980;28.882;2023-04-15T03:08:42;8.25;;;4.75;;
71856;SDS011;63344;46.980;28.882;2023-04-15T03:11:09;6.50;;;4.25;;
71856;SDS011;63344;46.980;28.882;2023-04-15T03:13:36;12.30;;;7.45;;
71856;SDS011;63344;46.980;28.882;2023-04-15T03:16:05;7.15;;;3.55;;
71856;SDS011;63344;46.980;28.882;2023-04-15T03:18:33;5.22;;;3.20;;
71856;SDS011;63344;46.980;28.882;2023-04-15T03:21:01;8.38;;;4.93;;
71856;SDS011;63344;46.980;28.882;2023-04-15T03:23:29;7.90;;;4.93;;
71856;SDS011;63344;46.980;28.882;2023-04-15T03:26:00;9.13;;;5.32;;
71856;SDS011;63344;46.980;28.882;2023-04-15T03:28:29;12.30;;;6.93;;
71856;SDS011;63344;46.980;28.882;2023-04-15T03:30:57;7.00;;;4.63;;
71856;SDS011;63344;46.980;28.882;2023-04-15T03:33:25;6.53;;;3.90;;
71856;SDS011;63344;46.980;28.882;2023-04-15T03:35:52;10.45;;;5.45;;
71856;SDS011;63344;46.980;28.882;2023-04-15T03:38:19;11.07;;;7.68;;
71856;SDS011;63344;46.980;28.882;2023-04-15T03:40:47;8.63;;;5.47;;
71856;SDS011;63344;46.980;28.882;2023-04-15T03:43:14;9.77;;;5.70;;
71856;SDS011;63344;46.980;28.882;2023-04-15T03:45:42;14.18;;;7.63;;
71856;SDS011;63344;46.980;28.882;2023-04-15T03:48:09;9.93;;;5.70;;
71856;SDS011;63344;46.980;28.882;2023-04-15T03:50:45;10.25;;;5.20;;
71856;SDS011;63344;46.980;28.882;2023-04-15T03:53:12;13.32;;;8.23;;
71856;SDS011;63344;46.980;28.882;2023-04-15T03:55:39;11.48;;;5.85;;
71856;SDS011;63344;46.980;28.882;2023-04-15T03:58:06;8.15;;;5.40;;
71856;SDS011;63344;46.980;28.882;2023-04-15T04:00:34;12.38;;;7.35;;
71856;SDS011;63344;46.980;28.882;2023-04-15T04:03:01;8.65;;;5.90;;
71856;SDS011;63344;46.980;28.882;2023-04-15T04:05:29;9.82;;;6.32;;
71856;SDS011;63344;46.980;28.882;2023-04-15T04:07:58;12.73;;;7.57;;
71856;SDS011;63344;46.980;28.882;2023-04-15T04:10:26;10.27;;;6.55;;
71856;SDS011;63344;46.980;28.882;2023-04-15T04:12:53;12.20;;;8.27;;
71856;SDS011;63344;46.980;28.882;2023-04-15T04:15:21;11.82;;;7.18;;
71856;SDS011;63344;46.980;28.882;2023-04-15T04:17:48;13.63;;;7.88;;
71856;SDS011;63344;46.980;28.882;2023-04-15T04:20:15;13.63;;;6.80;;
71856;SDS011;63344;46.980;28.882;2023-04-15T04:22:42;11.45;;;5.75;;
71856;SDS011;63344;46.980;28.882;2023-04-15T04:25:10;10.32;;;6.45;;
71856;SDS011;63344;46.980;28.882;2023-04-15T04:27:37;16.42;;;8.88;;
71856;SDS011;63344;46.980;28.882;2023-04-15T04:30:05;17.02;;;10.10;;
71856;SDS011;63344;46.980;28.882;2023-04-15T04:32:32;19.10;;;13.02;;
71856;SDS011;63344;46.980;28.882;2023-04-15T04:35:00;21.25;;;10.48;;
71856;SDS011;63344;46.980;28.882;2023-04-15T04:37:27;17.15;;;8.93;;
71856;SDS011;63344;46.980;28.882;2023-04-15T04:39:55;14.18;;;7.65;;
71856;SDS011;63344;46.980;28.882;2023-04-15T04:42:22;18.73;;;10.13;;
71856;SDS011;63344;46.980;28.882;2023-04-15T04:44:49;12.27;;;7.53;;
71856;SDS011;63344;46.980;28.882;2023-04-15T04:47:17;13.68;;;7.82;;
71856;SDS011;63344;46.980;28.882;2023-04-15T04:49:44;15.40;;;8.55;;
71856;SDS011;63344;46.980;28.882;2023-04-15T04:52:11;13.00;;;7.88;;
71856;SDS011;63344;46.980;28.882;2023-04-15T04:54:39;13.40;;;7.03;;
71856;SDS011;63344;46.980;28.882;2023-04-15T04:57:06;16.30;;;9.43;;
71856;SDS011;63344;46.980;28.882;2023-04-15T04:59:34;18.08;;;11.10;;
71856;SDS011;63344;46.980;28.882;2023-04-15T05:02:01;15.20;;;7.90;;
71856;SDS011;63344;46.980;28.882;2023-04-15T05:04:30;18.10;;;10.88;;
71856;SDS011;63344;46.980;28.882;2023-04-15T05:06:58;17.30;;;10.32;;
71856;SDS011;63344;46.980;28.882;2023-04-15T05:09:28;13.07;;;7.55;;
71856;SDS011;63344;46.980;28.882;2023-04-15T05:11:58;14.95;;;9.00;;
71856;SDS011;63344;46.980;28.882;2023-04-15T05:14:28;15.73;;;9.80;;
71856;SDS011;63344;46.980;28.882;2023-04-15T05:16:55;16.15;;;7.70;;
71856;SDS011;63344;46.980;28.882;2023-04-15T05:19:23;16.95;;;9.63;;
71856;SDS011;63344;46.980;28.882;2023-04-15T05:21:50;19.92;;;10.05;;
71856;SDS011;63344;46.980;28.882;2023-04-15T05:24:18;15.80;;;9.43;;
71856;SDS011;63344;46.980;28.882;2023-04-15T05:26:45;14.13;;;7.00;;
71856;SDS011;63344;46.980;28.882;2023-04-15T05:29:13;15.80;;;8.32;;
71856;SDS011;63344;46.980;28.882;2023-04-15T05:31:40;16.27;;;9.82;;
71856;SDS011;63344;46.980;28.882;2023-04-15T05:34:08;15.43;;;8.57;;
71856;SDS011;63344;46.980;28.882;2023-04-15T05:36:37;16.00;;;9.52;;
71856;SDS011;63344;46.980;28.882;2023-04-15T05:39:04;20.25;;;6.45;;
71856;SDS011;63344;46.980;28.882;2023-04-15T05:41:32;16.35;;;8.82;;
71856;SDS011;63344;46.980;28.882;2023-04-15T05:44:01;13.80;;;8.45;;
71856;SDS011;63344;46.980;28.882;2023-04-15T05:46:28;21.42;;;12.98;;
71856;SDS011;63344;46.980;28.882;2023-04-15T05:48:57;17.35;;;9.43;;
71856;SDS011;63344;46.980;28.882;2023-04-15T05:51:24;18.30;;;8.77;;
71856;SDS011;63344;46.980;28.882;2023-04-15T05:53:52;21.55;;;12.30;;
71856;SDS011;63344;46.980;28.882;2023-04-15T05:56:19;20.15;;;10.80;;
71856;SDS011;63344;46.980;28.882;2023-04-15T05:58:46;21.45;;;10.80;;
71856;SDS011;63344;46.980;28.882;2023-04-15T06:01:13;12.07;;;7.10;;
71856;SDS011;63344;46.980;28.882;2023-04-15T06:03:41;19.90;;;11.60;;
71856;SDS011;63344;46.980;28.882;2023-04-15T06:06:09;22.63;;;12.48;;
71856;SDS011;63344;46.980;28.882;2023-04-15T06:08:37;21.60;;;12.32;;
71856;SDS011;63344;46.980;28.882;2023-04-15T06:11:04;18.98;;;11.55;;
71856;SDS011;63344;46.980;28.882;2023-04-15T06:13:32;14.50;;;7.95;;
71856;SDS011;63344;46.980;28.882;2023-04-15T06:15:59;25.95;;;12.00;;
71856;SDS011;63344;46.980;28.882;2023-04-15T06:18:27;20.88;;;11.60;;
71856;SDS011;63344;46.980;28.882;2023-04-15T06:20:54;18.35;;;10.77;;
71856;SDS011;63344;46.980;28.882;2023-04-15T06:23:21;14.55;;;6.93;;
71856;SDS011;63344;46.980;28.882;2023-04-15T06:25:48;16.83;;;8.73;;
71856;SDS011;63344;46.980;28.882;2023-04-15T06:28:16;14.32;;;8.65;;
71856;SDS011;63344;46.980;28.882;2023-04-15T06:30:43;15.23;;;8.40;;
71856;SDS011;63344;46.980;28.882;2023-04-15T06:33:11;14.98;;;8.05;;
71856;SDS011;63344;46.980;28.882;2023-04-15T06:35:39;11.63;;;6.15;;
71856;SDS011;63344;46.980;28.882;2023-04-15T06:38:06;16.85;;;8.63;;
71856;SDS011;63344;46.980;28.882;2023-04-15T06:40:34;17.58;;;8.48;;
71856;SDS011;63344;46.980;28.882;2023-04-15T06:43:01;14.82;;;7.18;;
71856;SDS011;63344;46.980;28.882;2023-04-15T06:45:28;15.73;;;7.30;;
71856;SDS011;63344;46.980;28.882;2023-04-15T06:47:56;10.32;;;5.97;;
71856;SDS011;63344;46.980;28.882;2023-04-15T06:50:23;11.85;;;6.28;;
71856;SDS011;63344;46.980;28.882;2023-04-15T06:52:51;14.32;;;8.63;;
71856;SDS011;63344;46.980;28.882;2023-04-15T06:55:20;13.55;;;7.47;;
71856;SDS011;63344;46.980;28.882;2023-04-15T06:57:49;10.77;;;6.80;;
71856;SDS011;63344;46.980;28.882;2023-04-15T07:00:16;11.40;;;6.18;;
71856;SDS011;63344;46.980;28.882;2023-04-15T07:02:44;13.05;;;8.90;;
71856;SDS011;63344;46.980;28.882;2023-04-15T07:05:12;12.10;;;7.18;;
71856;SDS011;63344;46.980;28.882;2023-04-15T07:07:40;13.45;;;6.55;;
71856;SDS011;63344;46.980;28.882;2023-04-15T07:10:07;16.13;;;7.90;;
71856;SDS011;63344;46.980;28.882;2023-04-15T07:12:36;16.85;;;8.65;;
71856;SDS011;63344;46.980;28.882;2023-04-15T07:15:03;15.07;;;8.43;;
71856;SDS011;63344;46.980;28.882;2023-04-15T07:17:31;18.70;;;7.55;;
71856;SDS011;63344;46.980;28.882;2023-04-15T07:20:00;17.75;;;8.75;;
71856;SDS011;63344;46.980;28.882;2023-04-15T07:22:28;13.13;;;7.35;;
71856;SDS011;63344;46.980;28.882;2023-04-15T07:24:55;11.82;;;6.80;;
71856;SDS011;63344;46.980;28.882;2023-04-15T07:27:23;12.70;;;7.43;;
71856;SDS011;63344;46.980;28.882;2023-04-15T07:29:50;12.55;;;7.45;;
71856;SDS011;63344;46.980;28.882;2023-04-15T07:32:18;13.85;;;8.65;;
71856;SDS011;63344;46.980;28.882;2023-04-15T07:34:46;17.17;;;8.43;;
71856;SDS011;63344;46.980;28.882;2023-04-15T07:37:14;14.27;;;6.15;;
71856;SDS011;63344;46.980;28.882;2023-04-15T07:39:41;12.88;;;7.22;;
71856;SDS011;63344;46.980;28.882;2023-04-15T07:42:08;16.83;;;8.70;;
71856;SDS011;63344;46.980;28.882;2023-04-15T07:44:36;12.40;;;6.60;;
71856;SDS011;63344;46.980;28.882;2023-04-15T07:47:05;18.05;;;9.18;;
71856;SDS011;63344;46.980;28.882;2023-04-15T07:49:33;14.77;;;7.22;;
71856;SDS011;63344;46.980;28.882;2023-04-15T07:52:03;12.77;;;6.82;;
71856;SDS011;63344;46.980;28.882;2023-04-15T07:54:30;14.73;;;6.93;;
71856;SDS011;63344;46.980;28.882;2023-04-15T07:56:58;12.40;;;7.82;;
71856;SDS011;63344;46.980;28.882;2023-04-15T07:59:25;10.90;;;6.25;;
71856;SDS011;63344;46.980;28.882;2023-04-15T08:01:56;11.82;;;6.97;;
71856;SDS011;63344;46.980;28.882;2023-04-15T08:06:56;10.75;;;6.75;;
71856;SDS011;63344;46.980;28.882;2023-04-15T08:09:23;8.98;;;5.35;;
71856;SDS011;63344;46.980;28.882;2023-04-15T08:11:51;11.95;;;6.60;;
71856;SDS011;63344;46.980;28.882;2023-04-15T08:14:20;12.00;;;7.15;;
71856;SDS011;63344;46.980;28.882;2023-04-15T08:16:50;14.65;;;7.65;;
71856;SDS011;63344;46.980;28.882;2023-04-15T08:19:17;15.75;;;8.30;;
71856;SDS011;63344;46.980;28.882;2023-04-15T08:21:45;17.85;;;8.20;;
71856;SDS011;63344;46.980;28.882;2023-04-15T08:24:13;14.07;;;7.72;;
71856;SDS011;63344;46.980;28.882;2023-04-15T08:26:42;19.10;;;9.23;;
71856;SDS011;63344;46.980;28.882;2023-04-15T08:29:09;10.32;;;6.65;;
71856;SDS011;63344;46.980;28.882;2023-04-15T08:31:37;10.13;;;6.28;;
71856;SDS011;63344;46.980;28.882;2023-04-15T08:34:05;10.82;;;6.28;;
71856;SDS011;63344;46.980;28.882;2023-04-15T08:36:35;16.50;;;9.43;;
71856;SDS011;63344;46.980;28.882;2023-04-15T08:39:02;15.55;;;8.95;;
71856;SDS011;63344;46.980;28.882;2023-04-15T08:41:55;16.52;;;9.18;;
71856;SDS011;63344;46.980;28.882;2023-04-15T08:44:24;10.63;;;6.50;;
71856;SDS011;63344;46.980;28.882;2023-04-15T08:46:58;16.90;;;10.07;;
71856;SDS011;63344;46.980;28.882;2023-04-15T08:49:28;18.15;;;10.55;;
71856;SDS011;63344;46.980;28.882;2023-04-15T08:52:11;15.00;;;7.68;;
71856;SDS011;63344;46.980;28.882;2023-04-15T08:54:39;12.43;;;7.25;;
71856;SDS011;63344;46.980;28.882;2023-04-15T08:57:07;17.23;;;7.53;;
71856;SDS011;63344;46.980;28.882;2023-04-15T08:59:35;10.80;;;6.25;;
71856;SDS011;63344;46.980;28.882;2023-04-15T09:02:04;12.27;;;8.27;;
71856;SDS011;63344;46.980;28.882;2023-04-15T09:04:36;11.20;;;6.75;;
71856;SDS011;63344;46.980;28.882;2023-04-15T09:07:04;12.50;;;6.50;;
71856;SDS011;63344;46.980;28.882;2023-04-15T09:09:33;11.13;;;6.05;;
71856;SDS011;63344;46.980;28.882;2023-04-15T09:12:03;14.15;;;6.60;;
71856;SDS011;63344;46.980;28.882;2023-04-15T09:14:30;14.13;;;7.88;;
71856;SDS011;63344;46.980;28.882;2023-04-15T09:16:59;16.10;;;9.63;;
71856;SDS011;63344;46.980;28.882;2023-04-15T09:19:28;10.43;;;5.95;;
71856;SDS011;63344;46.980;28.882;2023-04-15T09:21:57;17.55;;;7.13;;
71856;SDS011;63344;46.980;28.882;2023-04-15T09:24:32;16.20;;;7.18;;
71856;SDS011;63344;46.980;28.882;2023-04-15T09:27:06;13.40;;;6.63;;
71856;SDS011;63344;46.980;28.882;2023-04-15T09:29:33;20.40;;;9.50;;
71856;SDS011;63344;46.980;28.882;2023-04-15T09:32:13;19.98;;;10.60;;
71856;SDS011;63344;46.980;28.882;2023-04-15T09:34:44;10.32;;;6.38;;
71856;SDS011;63344;46.980;28.882;2023-04-15T09:37:15;21.25;;;11.13;;
71856;SDS011;63344;46.980;28.882;2023-04-15T09:39:58;19.75;;;10.80;;
71856;SDS011;63344;46.980;28.882;2023-04-15T09:42:26;16.80;;;9.02;;
71856;SDS011;63344;46.980;28.882;2023-04-15T09:44:53;15.23;;;8.13;;
71856;SDS011;63344;46.980;28.882;2023-04-15T09:47:30;13.35;;;8.10;;
71856;SDS011;63344;46.980;28.882;2023-04-15T09:49:58;20.00;;;9.50;;
71856;SDS011;63344;46.980;28.882;2023-04-15T09:52:27;19.52;;;10.55;;
71856;SDS011;63344;46.980;28.882;2023-04-15T09:54:56;15.23;;;8.82;;
71856;SDS011;63344;46.980;28.882;2023-04-15T09:57:31;14.07;;;8.13;;
71856;SDS011;63344;46.980;28.882;2023-04-15T10:00:00;22.98;;;12.45;;
71856;SDS011;63344;46.980;28.882;2023-04-15T10:02:29;20.10;;;11.25;;
71856;SDS011;63344;46.980;28.882;2023-04-15T10:05:01;24.20;;;11.40;;
71856;SDS011;63344;46.980;28.882;2023-04-15T10:07:30;22.73;;;12.40;;
71856;SDS011;63344;46.980;28.882;2023-04-15T10:10:00;25.95;;;13.30;;
71856;SDS011;63344;46.980;28.882;2023-04-15T10:12:32;27.05;;;12.68;;
71856;SDS011;63344;46.980;28.882;2023-04-15T10:15:02;21.80;;;13.05;;
71856;SDS011;63344;46.980;28.882;2023-04-15T10:17:32;20.40;;;10.45;;
71856;SDS011;63344;46.980;28.882;2023-04-15T10:20:01;20.23;;;10.65;;
71856;SDS011;63344;46.980;28.882;2023-04-15T10:22:31;23.30;;;12.07;;
71856;SDS011;63344;46.980;28.882;2023-04-15T10:24:58;24.08;;;12.65;;
71856;SDS011;63344;46.980;28.882;2023-04-15T10:27:27;22.88;;;11.90;;
71856;SDS011;63344;46.980;28.882;2023-04-15T10:29:55;26.45;;;14.45;;
71856;SDS011;63344;46.980;28.882;2023-04-15T10:32:23;24.75;;;13.95;;
71856;SDS011;63344;46.980;28.882;2023-04-15T10:34:51;24.42;;;10.57;;
71856;SDS011;63344;46.980;28.882;2023-04-15T10:37:21;21.23;;;12.10;;
71856;SDS011;63344;46.980;28.882;2023-04-15T10:39:59;20.20;;;11.80;;
71856;SDS011;63344;46.980;28.882;2023-04-15T10:42:32;22.45;;;13.52;;
71856;SDS011;63344;46.980;28.882;2023-04-15T10:45:02;27.95;;;13.98;;
71856;SDS011;63344;46.980;28.882;2023-04-15T10:47:45;22.90;;;12.50;;
71856;SDS011;63344;46.980;28.882;2023-04-15T10:50:17;25.95;;;14.65;;
71856;SDS011;63344;46.980;28.882;2023-04-15T10:52:45;22.80;;;14.68;;
71856;SDS011;63344;46.980;28.882;2023-04-15T10:55:17;24.42;;;13.10;;
71856;SDS011;63344;46.980;28.882;2023-04-15T10:57:50;27.52;;;14.40;;
71856;SDS011;63344;46.980;28.882;2023-04-15T11:00:24;24.40;;;14.50;;
71856;SDS011;63344;46.980;28.882;2023-04-15T11:08:09;23.52;;;12.25;;
71856;SDS011;63344;46.980;28.882;2023-04-15T11:15:38;22.58;;;11.98;;
71856;SDS011;63344;46.980;28.882;2023-04-15T11:20:43;31.00;;;16.70;;
71856;SDS011;63344;46.980;28.882;2023-04-15T11:23:17;38.00;;;20.85;;
71856;SDS011;63344;46.980;28.882;2023-04-15T11:25:46;37.22;;;20.23;;
71856;SDS011;63344;46.980;28.882;2023-04-15T11:28:15;34.05;;;19.67;;
71856;SDS011;63344;46.980;28.882;2023-04-15T11:30:46;30.52;;;15.73;;
71856;SDS011;63344;46.980;28.882;2023-04-15T11:33:14;29.00;;;15.65;;
71856;SDS011;63344;46.980;28.882;2023-04-15T11:35:43;26.92;;;15.00;;
71856;SDS011;63344;46.980;28.882;2023-04-15T11:38:12;30.80;;;14.43;;
71856;SDS011;63344;46.980;28.882;2023-04-15T11:40:40;33.35;;;17.35;;
71856;SDS011;63344;46.980;28.882;2023-04-15T11:43:19;20.02;;;11.13;;
71856;SDS011;63344;46.980;28.882;2023-04-15T11:45:48;20.95;;;12.48;;
71856;SDS011;63344;46.980;28.882;2023-04-15T11:48:21;31.83;;;16.20;;
71856;SDS011;63344;46.980;28.882;2023-04-15T11:51:00;28.98;;;16.40;;
71856;SDS011;63344;46.980;28.882;2023-04-15T11:53:45;34.40;;;16.98;;
71856;SDS011;63344;46.980;28.882;2023-04-15T11:56:18;32.80;;;17.35;;
71856;SDS011;63344;46.980;28.882;2023-04-15T11:58:58;26.13;;;14.55;;
71856;SDS011;63344;46.980;28.882;2023-04-15T12:01:32;27.58;;;14.45;;
71856;SDS011;63344;46.980;28.882;2023-04-15T12:06:43;26.30;;;14.27;;
71856;SDS011;63344;46.980;28.882;2023-04-15T12:09:12;34.30;;;16.30;;
71856;SDS011;63344;46.980;28.882;2023-04-15T12:11:58;22.48;;;12.27;;
71856;SDS011;63344;46.980;28.882;2023-04-15T12:14:29;25.65;;;14.52;;
71856;SDS011;63344;46.980;28.882;2023-04-15T12:19:34;25.17;;;12.60;;
71856;SDS011;63344;46.980;28.882;2023-04-15T12:22:10;30.00;;;14.75;;
71856;SDS011;63344;46.980;28.882;2023-04-15T12:24:40;24.38;;;13.05;;
71856;SDS011;63344;46.980;28.882;2023-04-15T12:27:14;29.67;;;12.45;;
71856;SDS011;63344;46.980;28.882;2023-04-15T12:29:42;19.63;;;10.80;;
71856;SDS011;63344;46.980;28.882;2023-04-15T12:32:12;24.08;;;11.00;;
71856;SDS011;63344;46.980;28.882;2023-04-15T12:34:43;14.73;;;8.55;;
71856;SDS011;63344;46.980;28.882;2023-04-15T12:37:16;17.00;;;9.50;;
71856;SDS011;63344;46.980;28.882;2023-04-15T12:39:46;15.50;;;7.32;;
71856;SDS011;63344;46.980;28.882;2023-04-15T12:42:16;16.83;;;8.43;;
71856;SDS011;63344;46.980;28.882;2023-04-15T12:44:44;17.13;;;10.50;;
71856;SDS011;63344;46.980;28.882;2023-04-15T12:47:12;14.80;;;7.32;;
71856;SDS011;63344;46.980;28.882;2023-04-15T12:49:41;12.45;;;5.93;;
71856;SDS011;63344;46.980;28.882;2023-04-15T12:52:08;11.05;;;6.20;;
71856;SDS011;63344;46.980;28.882;2023-04-15T12:54:36;7.90;;;5.00;;
71856;SDS011;63344;46.980;28.882;2023-04-15T12:57:03;9.23;;;4.72;;
71856;SDS011;63344;46.980;28.882;2023-04-15T12:59:34;6.18;;;2.95;;
71856;SDS011;63344;46.980;28.882;2023-04-15T13:02:02;12.00;;;6.57;;
71856;SDS011;63344;46.980;28.882;2023-04-15T13:06:58;10.18;;;5.43;;
71856;SDS011;63344;46.980;28.882;2023-04-15T13:09:26;12.70;;;5.93;;
71856;SDS011;63344;46.980;28.882;2023-04-15T13:11:53;13.00;;;5.93;;
71856;SDS011;63344;46.980;28.882;2023-04-15T13:14:24;14.25;;;8.45;;
71856;SDS011;63344;46.980;28.882;2023-04-15T13:16:51;18.33;;;8.73;;
71856;SDS011;63344;46.980;28.882;2023-04-15T13:21:46;12.95;;;6.10;;
71856;SDS011;63344;46.980;28.882;2023-04-15T13:24:15;9.40;;;4.40;;
71856;SDS011;63344;46.980;28.882;2023-04-15T13:26:42;5.75;;;3.55;;
71856;SDS011;63344;46.980;28.882;2023-04-15T13:29:10;9.80;;;5.70;;
71856;SDS011;63344;46.980;28.882;2023-04-15T13:31:38;11.55;;;5.40;;
71856;SDS011;63344;46.980;28.882;2023-04-15T13:34:06;10.98;;;6.80;;
71856;SDS011;63344;46.980;28.882;2023-04-15T13:36:36;6.85;;;3.38;;
71856;SDS011;63344;46.980;28.882;2023-04-15T13:39:03;9.15;;;5.40;;
71856;SDS011;63344;46.980;28.882;2023-04-15T13:41:32;6.88;;;3.60;;
71856;SDS011;63344;46.980;28.882;2023-04-15T13:44:04;6.93;;;5.03;;
71856;SDS011;63344;46.980;28.882;2023-04-15T13:46:32;9.43;;;4.57;;
71856;SDS011;63344;46.980;28.882;2023-04-15T13:48:59;8.05;;;3.85;;
71856;SDS011;63344;46.980;28.882;2023-04-15T13:51:27;7.78;;;5.30;;
71856;SDS011;63344;46.980;28.882;2023-04-15T13:53:57;6.45;;;3.72;;
71856;SDS011;63344;46.980;28.882;2023-04-15T13:56:24;7.28;;;4.38;;
71856;SDS011;63344;46.980;28.882;2023-04-15T13:58:53;6.93;;;3.55;;
71856;SDS011;63344;46.980;28.882;2023-04-15T14:01:25;8.23;;;4.43;;
71856;SDS011;63344;46.980;28.882;2023-04-15T14:03:53;5.53;;;2.45;;
71856;SDS011;63344;46.980;28.882;2023-04-15T14:06:21;6.30;;;1.95;;
71856;SDS011;63344;46.980;28.882;2023-04-15T14:08:48;5.43;;;2.40;;
71856;SDS011;63344;46.980;28.882;2023-04-15T14:11:16;7.25;;;4.45;;
71856;SDS011;63344;46.980;28.882;2023-04-15T14:13:43;5.88;;;2.72;;
71856;SDS011;63344;46.980;28.882;2023-04-15T14:16:10;5.93;;;2.72;;
71856;SDS011;63344;46.980;28.882;2023-04-15T14:18:38;4.18;;;2.97;;
71856;SDS011;63344;46.980;28.882;2023-04-15T14:21:06;5.30;;;2.63;;
71856;SDS011;63344;46.980;28.882;2023-04-15T14:23:34;6.00;;;2.67;;
71856;SDS011;63344;46.980;28.882;2023-04-15T14:26:01;2.47;;;1.55;;
71856;SDS011;63344;46.980;28.882;2023-04-15T14:28:28;3.47;;;1.20;;
71856;SDS011;63344;46.980;28.882;2023-04-15T14:30:56;3.83;;;2.35;;
71856;SDS011;63344;46.980;28.882;2023-04-15T14:33:24;4.38;;;2.00;;
71856;SDS011;63344;46.980;28.882;2023-04-15T14:35:51;3.13;;;1.85;;
71856;SDS011;63344;46.980;28.882;2023-04-15T14:38:18;2.90;;;1.00;;
71856;SDS011;63344;46.980;28.882;2023-04-15T14:40:48;3.13;;;1.35;;
71856;SDS011;63344;46.980;28.882;2023-04-15T14:43:15;2.67;;;1.20;;
71856;SDS011;63344;46.980;28.882;2023-04-15T14:45:42;5.00;;;1.25;;
71856;SDS011;63344;46.980;28.882;2023-04-15T14:48:11;3.38;;;1.30;;
71856;SDS011;63344;46.980;28.882;2023-04-15T14:50:39;3.58;;;1.80;;
71856;SDS011;63344;46.980;28.882;2023-04-15T14:53:06;5.65;;;2.00;;
71856;SDS011;63344;46.980;28.882;2023-04-15T14:55:33;2.30;;;1.15;;